sensor_id;sensor_type;location;lat;lon;timestamp;pressure;altitude;pressure_sealevel;temperature;humidity
60371;BME280;48550;40.588;49.684;2022-07-04T00:00:49;101405.84;;;22.36;48.09
60371;BME280;48550;40.588;49.684;2022-07-04T00:03:15;101410.19;;;22.37;47.50
60371;BME280;48550;40.588;49.684;2022-07-04T00:05:40;101404.72;;;22.37;47.72
60371;BME280;48550;40.588;49.684;2022-07-04T00:08:06;101409.09;;;22.38;47.66
60371;BME280;48550;40.588;49.684;2022-07-04T00:10:32;101408.56;;;22.36;47.75
60371;BME280;48550;40.588;49.684;2022-07-04T00:12:58;101415.16;;;22.35;47.43
60371;BME280;48550;40.588;49.684;2022-07-04T00:15:24;101414.34;;;22.35;47.63
60371;BME280;48550;40.588;49.684;2022-07-04T00:17:50;101415.16;;;22.35;47.74
60371;BME280;48550;40.588;49.684;2022-07-04T00:20:16;101419.00;;;22.34;47.63
60371;BME280;48550;40.588;49.684;2022-07-04T00:22:42;101417.59;;;22.37;47.79
60371;BME280;48550;40.588;49.684;2022-07-04T00:25:07;101415.38;;;22.39;47.50
60371;BME280;48550;40.588;49.684;2022-07-04T00:27:33;101414.84;;;22.37;47.35
60371;BME280;48550;40.588;49.684;2022-07-04T00:30:00;101417.38;;;22.33;47.64
60371;BME280;48550;40.588;49.684;2022-07-04T00:32:26;101419.28;;;22.33;47.84
60371;BME280;48550;40.588;49.684;2022-07-04T00:34:51;101429.94;;;22.34;47.91
60371;BME280;48550;40.588;49.684;2022-07-04T00:37:17;101432.16;;;22.32;47.93
60371;BME280;48550;40.588;49.684;2022-07-04T00:39:43;101429.97;;;22.29;48.02
60371;BME280;48550;40.588;49.684;2022-07-04T00:42:09;101433.00;;;22.28;48.27
60371;BME280;48550;40.588;49.684;2022-07-04T00:44:35;101433.28;;;22.26;48.30
60371;BME280;48550;40.588;49.684;2022-07-04T00:47:03;101437.13;;;22.25;48.62
60371;BME280;48550;40.588;49.684;2022-07-04T00:49:28;101440.38;;;22.27;48.67
60371;BME280;48550;40.588;49.684;2022-07-04T00:51:54;101433.53;;;22.30;48.47
60371;BME280;48550;40.588;49.684;2022-07-04T00:54:25;101442.78;;;22.34;48.53
60371;BME280;48550;40.588;49.684;2022-07-04T00:56:52;101448.19;;;22.39;48.40
60371;BME280;48550;40.588;49.684;2022-07-04T00:59:18;101439.69;;;22.40;48.28
60371;BME280;48550;40.588;49.684;2022-07-04T01:01:44;101446.50;;;22.43;48.10
60371;BME280;48550;40.588;49.684;2022-07-04T01:04:10;101454.13;;;22.46;48.17
60371;BME280;48550;40.588;49.684;2022-07-04T01:06:36;101456.03;;;22.45;47.97
60371;BME280;48550;40.588;49.684;2022-07-04T01:09:02;101457.97;;;22.45;48.35
60371;BME280;48550;40.588;49.684;2022-07-04T01:11:28;101456.31;;;22.44;48.05
60371;BME280;48550;40.588;49.684;2022-07-04T01:13:54;101459.59;;;22.46;48.07
60371;BME280;48550;40.588;49.684;2022-07-04T01:16:20;101454.69;;;22.43;47.92
60371;BME280;48550;40.588;49.684;2022-07-04T01:18:46;101459.59;;;22.46;47.74
60371;BME280;48550;40.588;49.684;2022-07-04T01:21:12;101464.75;;;22.47;48.19
60371;BME280;48550;40.588;49.684;2022-07-04T01:23:39;101467.50;;;22.47;48.02
60371;BME280;48550;40.588;49.684;2022-07-04T01:26:05;101461.81;;;22.44;48.10
60371;BME280;48550;40.588;49.684;2022-07-04T01:28:31;101463.19;;;22.41;48.11
60371;BME280;48550;40.588;49.684;2022-07-04T01:30:57;101460.75;;;22.40;49.06
60371;BME280;48550;40.588;49.684;2022-07-04T01:33:23;101463.50;;;22.40;48.64
60371;BME280;48550;40.588;49.684;2022-07-04T01:35:49;101464.31;;;22.40;48.38
60371;BME280;48550;40.588;49.684;2022-07-04T01:38:15;101468.16;;;22.39;48.62
60371;BME280;48550;40.588;49.684;2022-07-04T01:40:41;101478.28;;;22.39;48.67
60371;BME280;48550;40.588;49.684;2022-07-04T01:43:07;101477.16;;;22.40;48.76
60371;BME280;48550;40.588;49.684;2022-07-04T01:45:33;101481.81;;;22.39;48.90
60371;BME280;48550;40.588;49.684;2022-07-04T01:48:00;101484.50;;;22.44;48.87
60371;BME280;48550;40.588;49.684;2022-07-04T01:50:26;101484.50;;;22.44;48.65
60371;BME280;48550;40.588;49.684;2022-07-04T01:52:52;101490.19;;;22.48;48.81
60371;BME280;48550;40.588;49.684;2022-07-04T01:55:18;101490.25;;;22.43;48.93
60371;BME280;48550;40.588;49.684;2022-07-04T01:57:43;101484.28;;;22.41;49.13
60371;BME280;48550;40.588;49.684;2022-07-04T02:00:10;101489.75;;;22.41;49.13
60371;BME280;48550;40.588;49.684;2022-07-04T02:02:57;101487.31;;;22.39;49.65
60371;BME280;48550;40.588;49.684;2022-07-04T02:05:23;101488.34;;;22.43;49.68
60371;BME280;48550;40.588;49.684;2022-07-04T02:07:50;101485.59;;;22.43;49.76
60371;BME280;48550;40.588;49.684;2022-07-04T02:10:17;101489.97;;;22.44;49.86
60371;BME280;48550;40.588;49.684;2022-07-04T02:12:42;101493.16;;;22.51;49.32
60371;BME280;48550;40.588;49.684;2022-07-04T02:15:38;101501.28;;;22.57;49.28
60371;BME280;48550;40.588;49.684;2022-07-04T02:18:05;101499.06;;;22.59;49.70
60371;BME280;48550;40.588;49.684;2022-07-04T02:20:32;101495.16;;;22.65;49.59
60371;BME280;48550;40.588;49.684;2022-07-04T02:22:58;101495.09;;;22.70;49.58
60371;BME280;48550;40.588;49.684;2022-07-04T02:25:24;101496.34;;;22.77;49.54
60371;BME280;48550;40.588;49.684;2022-07-04T02:27:50;101495.13;;;22.89;49.47
60371;BME280;48550;40.588;49.684;2022-07-04T02:30:16;101503.78;;;22.96;49.49
60371;BME280;48550;40.588;49.684;2022-07-04T02:32:42;101502.28;;;23.03;49.36
60371;BME280;48550;40.588;49.684;2022-07-04T02:35:09;101508.06;;;23.21;48.88
60371;BME280;48550;40.588;49.684;2022-07-04T02:37:35;101505.25;;;23.26;48.54
60371;BME280;48550;40.588;49.684;2022-07-04T02:40:01;101508.56;;;23.41;48.86
60371;BME280;48550;40.588;49.684;2022-07-04T02:42:29;101505.63;;;23.52;48.69
60371;BME280;48550;40.588;49.684;2022-07-04T02:44:56;101512.19;;;23.56;48.43
60371;BME280;48550;40.588;49.684;2022-07-04T02:47:21;101523.25;;;23.64;49.09
60371;BME280;48550;40.588;49.684;2022-07-04T02:49:47;101525.41;;;23.67;48.87
60371;BME280;48550;40.588;49.684;2022-07-04T02:52:13;101521.44;;;23.73;48.72
60371;BME280;48550;40.588;49.684;2022-07-04T02:54:39;101516.47;;;23.75;49.29
60371;BME280;48550;40.588;49.684;2022-07-04T02:57:05;101524.66;;;23.81;49.16
60371;BME280;48550;40.588;49.684;2022-07-04T02:59:31;101524.66;;;23.81;49.56
60371;BME280;48550;40.588;49.684;2022-07-04T03:01:56;101521.91;;;23.81;49.44
60371;BME280;48550;40.588;49.684;2022-07-04T03:04:22;101525.47;;;23.81;49.61
60371;BME280;48550;40.588;49.684;2022-07-04T03:06:48;101535.31;;;23.82;48.80
60371;BME280;48550;40.588;49.684;2022-07-04T03:09:14;101536.03;;;23.88;48.33
60371;BME280;48550;40.588;49.684;2022-07-04T03:11:39;101532.59;;;23.96;47.43
60371;BME280;48550;40.588;49.684;2022-07-04T03:14:05;101541.63;;;24.10;48.25
60371;BME280;48550;40.588;49.684;2022-07-04T03:16:31;101531.47;;;24.24;45.96
60371;BME280;48550;40.588;49.684;2022-07-04T03:18:56;101532.63;;;24.51;46.50
60371;BME280;48550;40.588;49.684;2022-07-04T03:21:22;101537.97;;;24.83;46.39
60371;BME280;48550;40.588;49.684;2022-07-04T03:23:48;101535.00;;;24.93;43.43
60371;BME280;48550;40.588;49.684;2022-07-04T03:26:27;101548.72;;;25.07;44.47
60371;BME280;48550;40.588;49.684;2022-07-04T03:28:55;101550.34;;;25.08;44.33
60371;BME280;48550;40.588;49.684;2022-07-04T03:31:21;101550.16;;;25.05;42.43
60371;BME280;48550;40.588;49.684;2022-07-04T03:33:47;101549.53;;;25.08;42.84
60371;BME280;48550;40.588;49.684;2022-07-04T03:36:13;101551.09;;;25.22;43.13
60371;BME280;48550;40.588;49.684;2022-07-04T03:38:38;101554.31;;;25.38;43.05
60371;BME280;48550;40.588;49.684;2022-07-04T03:41:04;101553.31;;;25.56;42.46
60371;BME280;48550;40.588;49.684;2022-07-04T03:43:30;101567.94;;;25.88;42.17
60371;BME280;48550;40.588;49.684;2022-07-04T03:45:56;101568.06;;;26.05;42.19
60371;BME280;48550;40.588;49.684;2022-07-04T03:48:21;101568.88;;;26.06;41.58
60371;BME280;48550;40.588;49.684;2022-07-04T03:50:47;101569.81;;;26.01;42.66
60371;BME280;48550;40.588;49.684;2022-07-04T03:53:13;101565.81;;;25.85;42.63
60371;BME280;48550;40.588;49.684;2022-07-04T03:55:40;101566.41;;;25.73;42.27
60371;BME280;48550;40.588;49.684;2022-07-04T03:58:06;101572.56;;;25.56;43.38
60371;BME280;48550;40.588;49.684;2022-07-04T04:00:32;101569.06;;;25.42;43.09
60371;BME280;48550;40.588;49.684;2022-07-04T04:02:58;101579.38;;;25.37;42.80
60371;BME280;48550;40.588;49.684;2022-07-04T04:05:24;101569.00;;;25.33;43.57
60371;BME280;48550;40.588;49.684;2022-07-04T04:07:57;101583.56;;;25.34;42.73
60371;BME280;48550;40.588;49.684;2022-07-04T04:10:25;101578.69;;;25.31;41.30
60371;BME280;48550;40.588;49.684;2022-07-04T04:12:51;101573.56;;;25.38;42.21
60371;BME280;48550;40.588;49.684;2022-07-04T04:15:17;101582.88;;;25.51;41.73
60371;BME280;48550;40.588;49.684;2022-07-04T04:17:43;101572.94;;;25.63;41.20
60371;BME280;48550;40.588;49.684;2022-07-04T04:20:09;101572.25;;;25.80;41.68
60371;BME280;48550;40.588;49.684;2022-07-04T04:22:35;101571.38;;;25.93;40.73
60371;BME280;48550;40.588;49.684;2022-07-04T04:25:01;101570.66;;;26.10;40.65
60371;BME280;48550;40.588;49.684;2022-07-04T04:27:27;101576.13;;;26.02;39.29
60371;BME280;48550;40.588;49.684;2022-07-04T04:29:53;101581.72;;;25.96;40.13
60371;BME280;48550;40.588;49.684;2022-07-04T04:32:18;101576.53;;;25.95;41.14
60371;BME280;48550;40.588;49.684;2022-07-04T04:34:44;101576.81;;;25.85;40.99
60371;BME280;48550;40.588;49.684;2022-07-04T04:37:10;101584.31;;;25.93;41.34
60371;BME280;48550;40.588;49.684;2022-07-04T04:39:36;101578.56;;;25.81;41.00
60371;BME280;48550;40.588;49.684;2022-07-04T04:42:02;101579.88;;;25.83;41.53
60371;BME280;48550;40.588;49.684;2022-07-04T04:44:28;101579.28;;;25.95;41.21
60371;BME280;48550;40.588;49.684;2022-07-04T04:46:53;101579.25;;;26.09;42.00
60371;BME280;48550;40.588;49.684;2022-07-04T04:49:19;101582.84;;;26.18;41.31
60371;BME280;48550;40.588;49.684;2022-07-04T04:51:45;101582.47;;;26.11;40.51
60371;BME280;48550;40.588;49.684;2022-07-04T04:54:11;101590.88;;;26.37;40.94
60371;BME280;48550;40.588;49.684;2022-07-04T04:56:36;101582.00;;;26.48;41.28
60371;BME280;48550;40.588;49.684;2022-07-04T04:59:02;101585.28;;;26.59;40.21
60371;BME280;48550;40.588;49.684;2022-07-04T05:01:28;101588.56;;;26.70;40.12
60371;BME280;48550;40.588;49.684;2022-07-04T05:03:54;101589.09;;;26.80;40.39
60371;BME280;48550;40.588;49.684;2022-07-04T05:06:19;101590.09;;;26.93;40.40
60371;BME280;48550;40.588;49.684;2022-07-04T05:08:46;101590.78;;;27.07;38.97
60371;BME280;48550;40.588;49.684;2022-07-04T05:11:11;101585.28;;;27.16;38.55
60371;BME280;48550;40.588;49.684;2022-07-04T05:13:37;101589.66;;;27.51;37.99
60371;BME280;48550;40.588;49.684;2022-07-04T05:16:03;101594.66;;;27.84;38.16
60371;BME280;48550;40.588;49.684;2022-07-04T05:18:29;101584.03;;;28.12;36.28
60371;BME280;48550;40.588;49.684;2022-07-04T05:20:55;101583.34;;;28.62;35.53
60371;BME280;48550;40.588;49.684;2022-07-04T05:23:20;101589.84;;;28.95;34.97
60371;BME280;48550;40.588;49.684;2022-07-04T05:25:47;101577.94;;;29.03;34.51
60371;BME280;48550;40.588;49.684;2022-07-04T05:28:13;101576.25;;;31.08;31.10
60371;BME280;48550;40.588;49.684;2022-07-04T05:30:39;101581.00;;;32.50;27.73
60371;BME280;48550;40.588;49.684;2022-07-04T05:33:04;101579.31;;;33.74;26.46
60371;BME280;48550;40.588;49.684;2022-07-04T05:35:30;101584.59;;;33.40;26.31
60371;BME280;48550;40.588;49.684;2022-07-04T05:37:57;101584.53;;;33.56;25.28
60371;BME280;48550;40.588;49.684;2022-07-04T05:40:23;101578.50;;;32.45;26.75
60371;BME280;48550;40.588;49.684;2022-07-04T05:42:49;101580.50;;;31.85;26.97
60371;BME280;48550;40.588;49.684;2022-07-04T05:45:15;101579.66;;;31.69;27.82
60371;BME280;48550;40.588;49.684;2022-07-04T05:47:41;101583.00;;;31.47;27.30
60371;BME280;48550;40.588;49.684;2022-07-04T05:50:07;101581.94;;;30.99;27.42
60371;BME280;48550;40.588;49.684;2022-07-04T05:52:35;101583.38;;;30.81;26.96
60371;BME280;48550;40.588;49.684;2022-07-04T05:55:00;101583.81;;;31.47;26.84
60371;BME280;48550;40.588;49.684;2022-07-04T05:57:26;101584.56;;;32.19;26.69
60371;BME280;48550;40.588;49.684;2022-07-04T05:59:52;101573.72;;;31.27;27.05
60371;BME280;48550;40.588;49.684;2022-07-04T06:02:18;101581.78;;;32.51;25.11
60371;BME280;48550;40.588;49.684;2022-07-04T06:04:44;101582.97;;;33.78;24.62
60371;BME280;48550;40.588;49.684;2022-07-04T06:07:10;101582.25;;;34.27;23.08
60371;BME280;48550;40.588;49.684;2022-07-04T06:09:36;101581.63;;;33.30;24.79
60371;BME280;48550;40.588;49.684;2022-07-04T06:12:04;101585.25;;;34.90;23.20
60371;BME280;48550;40.588;49.684;2022-07-04T06:14:30;101572.28;;;33.22;23.61
60371;BME280;48550;40.588;49.684;2022-07-04T06:16:56;101569.91;;;32.35;25.29
60371;BME280;48550;40.588;49.684;2022-07-04T06:19:22;101575.59;;;31.95;24.60
60371;BME280;48550;40.588;49.684;2022-07-04T06:21:48;101576.78;;;31.38;25.29
60371;BME280;48550;40.588;49.684;2022-07-04T06:24:14;101579.47;;;33.04;24.58
60371;BME280;48550;40.588;49.684;2022-07-04T06:26:40;101586.91;;;32.17;25.31
60371;BME280;48550;40.588;49.684;2022-07-04T06:29:06;101577.72;;;31.70;25.96
60371;BME280;48550;40.588;49.684;2022-07-04T06:31:32;101584.88;;;31.86;25.91
60371;BME280;48550;40.588;49.684;2022-07-04T06:33:58;101588.59;;;32.22;25.51
60371;BME280;48550;40.588;49.684;2022-07-04T06:36:42;101583.25;;;31.70;26.29
60371;BME280;48550;40.588;49.684;2022-07-04T06:39:08;101583.31;;;32.48;25.43
60371;BME280;48550;40.588;49.684;2022-07-04T06:41:33;101585.09;;;32.72;24.71
60371;BME280;48550;40.588;49.684;2022-07-04T06:43:59;101589.84;;;32.72;24.20
60371;BME280;48550;40.588;49.684;2022-07-04T06:46:25;101591.88;;;31.80;26.39
60371;BME280;48550;40.588;49.684;2022-07-04T06:48:51;101585.63;;;31.15;25.76
60371;BME280;48550;40.588;49.684;2022-07-04T06:51:16;101591.88;;;30.02;27.46
60371;BME280;48550;40.588;49.684;2022-07-04T06:53:42;101597.66;;;29.77;28.73
60371;BME280;48550;40.588;49.684;2022-07-04T06:56:10;101598.19;;;29.70;29.04
60371;BME280;48550;40.588;49.684;2022-07-04T06:58:36;101597.00;;;29.59;29.03
60371;BME280;48550;40.588;49.684;2022-07-04T07:01:01;101596.47;;;29.45;30.15
60371;BME280;48550;40.588;49.684;2022-07-04T07:03:27;101598.59;;;29.81;29.53
60371;BME280;48550;40.588;49.684;2022-07-04T07:05:54;101597.81;;;29.18;30.18
60371;BME280;48550;40.588;49.684;2022-07-04T07:08:22;101588.19;;;29.45;30.80
60371;BME280;48550;40.588;49.684;2022-07-04T07:10:48;101606.03;;;29.05;31.47
60371;BME280;48550;40.588;49.684;2022-07-04T07:13:14;101600.59;;;28.59;32.35
60371;BME280;48550;40.588;49.684;2022-07-04T07:15:40;101607.38;;;28.32;32.88
60371;BME280;48550;40.588;49.684;2022-07-04T07:18:06;101592.88;;;27.88;33.80
60371;BME280;48550;40.588;49.684;2022-07-04T07:20:32;101597.25;;;27.89;34.68
60371;BME280;48550;40.588;49.684;2022-07-04T07:23:01;101605.22;;;27.73;35.29
60371;BME280;48550;40.588;49.684;2022-07-04T07:25:26;101603.44;;;27.77;36.16
60371;BME280;48550;40.588;49.684;2022-07-04T07:27:52;101609.56;;;28.00;36.45
60371;BME280;48550;40.588;49.684;2022-07-04T07:30:18;101605.88;;;28.43;36.34
60371;BME280;48550;40.588;49.684;2022-07-04T07:32:44;101611.97;;;29.16;35.26
60371;BME280;48550;40.588;49.684;2022-07-04T07:35:09;101612.91;;;28.99;33.39
60371;BME280;48550;40.588;49.684;2022-07-04T07:37:35;101605.91;;;29.02;33.96
60371;BME280;48550;40.588;49.684;2022-07-04T07:40:01;101603.22;;;29.56;33.20
60371;BME280;48550;40.588;49.684;2022-07-04T07:42:27;101597.66;;;28.93;33.13
60371;BME280;48550;40.588;49.684;2022-07-04T07:44:53;101601.69;;;28.66;34.02
60371;BME280;48550;40.588;49.684;2022-07-04T07:47:19;101602.25;;;28.51;35.52
60371;BME280;48550;40.588;49.684;2022-07-04T07:49:45;101607.72;;;28.13;37.87
60371;BME280;48550;40.588;49.684;2022-07-04T07:52:13;101609.13;;;27.72;38.11
60371;BME280;48550;40.588;49.684;2022-07-04T07:54:40;101608.81;;;27.65;38.51
60371;BME280;48550;40.588;49.684;2022-07-04T07:57:06;101591.63;;;27.68;39.22
60371;BME280;48550;40.588;49.684;2022-07-04T07:59:31;101601.50;;;27.69;37.61
60371;BME280;48550;40.588;49.684;2022-07-04T08:01:57;101613.31;;;27.96;39.34
60371;BME280;48550;40.588;49.684;2022-07-04T08:04:23;101605.03;;;27.96;38.56
60371;BME280;48550;40.588;49.684;2022-07-04T08:07:06;101604.81;;;28.27;37.45
60371;BME280;48550;40.588;49.684;2022-07-04T08:09:33;101600.91;;;28.28;37.95
60371;BME280;48550;40.588;49.684;2022-07-04T08:12:00;101600.47;;;28.85;36.68
60371;BME280;48550;40.588;49.684;2022-07-04T08:14:27;101606.34;;;28.74;37.66
60371;BME280;48550;40.588;49.684;2022-07-04T08:16:53;101606.28;;;28.92;38.68
60371;BME280;48550;40.588;49.684;2022-07-04T08:19:19;101603.88;;;28.52;37.72
60371;BME280;48550;40.588;49.684;2022-07-04T08:21:45;101608.59;;;28.52;38.13
60371;BME280;48550;40.588;49.684;2022-07-04T08:24:15;101603.31;;;28.67;39.28
60371;BME280;48550;40.588;49.684;2022-07-04T08:26:42;101600.56;;;28.21;39.38
60371;BME280;48550;40.588;49.684;2022-07-04T08:29:17;101610.97;;;28.24;41.08
60371;BME280;48550;40.588;49.684;2022-07-04T08:31:42;101597.63;;;28.34;39.42
60371;BME280;48550;40.588;49.684;2022-07-04T08:34:08;101601.16;;;27.88;41.63
60371;BME280;48550;40.588;49.684;2022-07-04T08:36:34;101602.66;;;27.68;42.95
60371;BME280;48550;40.588;49.684;2022-07-04T08:39:00;101602.78;;;27.54;42.20
60371;BME280;48550;40.588;49.684;2022-07-04T08:41:26;101603.09;;;27.88;43.34
60371;BME280;48550;40.588;49.684;2022-07-04T08:43:55;101606.63;;;28.05;40.53
60371;BME280;48550;40.588;49.684;2022-07-04T08:46:25;101601.91;;;28.06;41.35
60371;BME280;48550;40.588;49.684;2022-07-04T08:48:55;101605.78;;;28.13;39.72
60371;BME280;48550;40.588;49.684;2022-07-04T08:51:31;101604.69;;;27.97;39.54
60371;BME280;48550;40.588;49.684;2022-07-04T08:54:04;101601.06;;;28.14;39.11
60371;BME280;48550;40.588;49.684;2022-07-04T08:56:50;101602.97;;;27.75;40.19
60371;BME280;48550;40.588;49.684;2022-07-04T08:59:33;101603.19;;;28.08;39.10
60371;BME280;48550;40.588;49.684;2022-07-04T09:01:59;101599.44;;;28.13;37.88
60371;BME280;48550;40.588;49.684;2022-07-04T09:04:25;101603.50;;;28.62;36.23
60371;BME280;48550;40.588;49.684;2022-07-04T09:06:51;101602.19;;;28.30;37.95
60371;BME280;48550;40.588;49.684;2022-07-04T09:09:18;101602.56;;;28.03;38.21
60371;BME280;48550;40.588;49.684;2022-07-04T09:11:43;101592.63;;;28.28;37.67
60371;BME280;48550;40.588;49.684;2022-07-04T09:14:09;101598.47;;;28.17;38.26
60371;BME280;48550;40.588;49.684;2022-07-04T09:16:35;101592.94;;;28.17;37.98
60371;BME280;48550;40.588;49.684;2022-07-04T09:19:00;101585.28;;;27.59;38.07
60371;BME280;48550;40.588;49.684;2022-07-04T09:21:43;101583.81;;;27.27;37.56
60371;BME280;48550;40.588;49.684;2022-07-04T09:24:09;101591.59;;;27.25;39.93
60371;BME280;48550;40.588;49.684;2022-07-04T09:26:40;101587.69;;;27.09;39.29
60371;BME280;48550;40.588;49.684;2022-07-04T09:29:06;101587.50;;;26.97;40.16
60371;BME280;48550;40.588;49.684;2022-07-04T09:31:32;101587.31;;;26.93;40.91
60371;BME280;48550;40.588;49.684;2022-07-04T09:34:00;101581.06;;;27.18;40.74
60371;BME280;48550;40.588;49.684;2022-07-04T09:36:32;101574.56;;;27.23;40.97
60371;BME280;48550;40.588;49.684;2022-07-04T09:39:15;101574.06;;;27.38;39.78
60371;BME280;48550;40.588;49.684;2022-07-04T09:42:00;101575.53;;;27.10;39.52
60371;BME280;48550;40.588;49.684;2022-07-04T09:46:59;101568.91;;;27.11;39.45
60371;BME280;48550;40.588;49.684;2022-07-04T09:49:58;101575.38;;;26.98;39.99
60371;BME280;48550;40.588;49.684;2022-07-04T09:52:24;101574.22;;;26.99;41.95
60371;BME280;48550;40.588;49.684;2022-07-04T09:54:50;101559.66;;;27.07;41.49
60371;BME280;48550;40.588;49.684;2022-07-04T09:57:22;101564.16;;;26.85;43.06
60371;BME280;48550;40.588;49.684;2022-07-04T09:59:47;101564.94;;;26.86;43.00
60371;BME280;48550;40.588;49.684;2022-07-04T10:02:13;101566.06;;;26.76;42.76
60371;BME280;48550;40.588;49.684;2022-07-04T10:04:49;101563.97;;;26.82;43.65
60371;BME280;48550;40.588;49.684;2022-07-04T10:07:31;101566.56;;;26.78;43.57
60371;BME280;48550;40.588;49.684;2022-07-04T10:09:57;101564.00;;;26.34;44.97
60371;BME280;48550;40.588;49.684;2022-07-04T10:12:27;101565.16;;;26.41;44.97
60371;BME280;48550;40.588;49.684;2022-07-04T10:14:55;101564.19;;;26.06;44.84
60371;BME280;48550;40.588;49.684;2022-07-04T10:17:21;101571.66;;;26.14;46.28
60371;BME280;48550;40.588;49.684;2022-07-04T10:19:47;101566.00;;;26.19;45.82
60371;BME280;48550;40.588;49.684;2022-07-04T10:22:17;101563.09;;;26.16;46.40
60371;BME280;48550;40.588;49.684;2022-07-04T10:24:43;101568.22;;;26.09;44.28
60371;BME280;48550;40.588;49.684;2022-07-04T10:27:10;101560.66;;;26.14;44.46
60371;BME280;48550;40.588;49.684;2022-07-04T10:29:37;101563.19;;;26.02;45.21
60371;BME280;48550;40.588;49.684;2022-07-04T10:32:03;101572.66;;;25.96;45.96
60371;BME280;48550;40.588;49.684;2022-07-04T10:34:39;101574.75;;;25.90;46.75
60371;BME280;48550;40.588;49.684;2022-07-04T10:37:05;101564.72;;;25.94;45.11
60371;BME280;48550;40.588;49.684;2022-07-04T10:39:30;101566.00;;;25.88;46.57
60371;BME280;48550;40.588;49.684;2022-07-04T10:41:57;101560.94;;;25.82;48.03
60371;BME280;48550;40.588;49.684;2022-07-04T10:44:29;101570.22;;;25.94;48.17
60371;BME280;48550;40.588;49.684;2022-07-04T10:47:04;101568.44;;;26.21;48.12
60371;BME280;48550;40.588;49.684;2022-07-04T10:49:30;101558.41;;;26.16;46.20
60371;BME280;48550;40.588;49.684;2022-07-04T10:52:11;101557.53;;;26.07;47.94
60371;BME280;48550;40.588;49.684;2022-07-04T10:54:40;101554.69;;;25.90;48.34
60371;BME280;48550;40.588;49.684;2022-07-04T10:57:20;101547.75;;;26.23;48.07
60371;BME280;48550;40.588;49.684;2022-07-04T11:02:28;101554.28;;;26.05;47.55
60371;BME280;48550;40.588;49.684;2022-07-04T11:17:58;101555.53;;;25.99;48.08
60371;BME280;48550;40.588;49.684;2022-07-04T11:20:27;101552.19;;;26.02;46.54
60371;BME280;48550;40.588;49.684;2022-07-04T11:23:03;101555.66;;;25.94;47.81
60371;BME280;48550;40.588;49.684;2022-07-04T11:25:29;101551.56;;;25.83;47.96
60371;BME280;48550;40.588;49.684;2022-07-04T11:27:54;101547.56;;;25.89;46.51
60371;BME280;48550;40.588;49.684;2022-07-04T11:30:20;101561.25;;;25.80;46.45
60371;BME280;48550;40.588;49.684;2022-07-04T11:32:46;101560.38;;;26.24;45.00
60371;BME280;48550;40.588;49.684;2022-07-04T11:35:12;101561.72;;;26.36;44.24
60371;BME280;48550;40.588;49.684;2022-07-04T11:37:37;101563.19;;;26.02;43.56
60371;BME280;48550;40.588;49.684;2022-07-04T11:40:04;101564.56;;;25.91;43.57
60371;BME280;48550;40.588;49.684;2022-07-04T11:43:04;101570.91;;;26.00;43.95
60371;BME280;48550;40.588;49.684;2022-07-04T11:45:49;101567.16;;;26.18;42.96
60371;BME280;48550;40.588;49.684;2022-07-04T11:48:22;101568.09;;;26.14;44.57
60371;BME280;48550;40.588;49.684;2022-07-04T11:50:48;101571.06;;;25.95;44.64
60371;BME280;48550;40.588;49.684;2022-07-04T11:53:13;101562.44;;;25.88;45.68
60371;BME280;48550;40.588;49.684;2022-07-04T11:55:58;101569.75;;;25.92;46.24
60371;BME280;48550;40.588;49.684;2022-07-04T11:58:46;101566.94;;;26.06;42.73
60371;BME280;48550;40.588;49.684;2022-07-04T12:01:12;101561.00;;;26.21;43.82
60371;BME280;48550;40.588;49.684;2022-07-04T12:03:38;101564.59;;;26.31;44.69
60371;BME280;48550;40.588;49.684;2022-07-04T12:06:04;101565.53;;;26.17;44.75
60371;BME280;48550;40.588;49.684;2022-07-04T12:08:31;101566.00;;;26.19;45.91
60371;BME280;48550;40.588;49.684;2022-07-04T12:10:57;101563.38;;;25.83;45.41
60371;BME280;48550;40.588;49.684;2022-07-04T12:13:23;101554.13;;;25.79;44.94
60371;BME280;48550;40.588;49.684;2022-07-04T12:15:51;101558.63;;;25.53;44.79
60371;BME280;48550;40.588;49.684;2022-07-04T12:20:45;101560.88;;;25.51;45.45
60371;BME280;48550;40.588;49.684;2022-07-04T12:23:11;101554.44;;;25.33;45.33
60371;BME280;48550;40.588;49.684;2022-07-04T12:25:38;101564.94;;;25.31;45.36
60371;BME280;48550;40.588;49.684;2022-07-04T12:28:09;101555.97;;;25.25;46.14
60371;BME280;48550;40.588;49.684;2022-07-04T12:30:39;101556.19;;;25.29;45.22
60371;BME280;48550;40.588;49.684;2022-07-04T12:33:07;101570.44;;;25.31;44.95
60371;BME280;48550;40.588;49.684;2022-07-04T12:35:47;101564.75;;;25.27;44.04
60371;BME280;48550;40.588;49.684;2022-07-04T12:38:14;101565.84;;;25.26;45.12
60371;BME280;48550;40.588;49.684;2022-07-04T12:43:44;101570.31;;;25.00;46.60
60371;BME280;48550;40.588;49.684;2022-07-04T12:48:38;101575.06;;;25.08;46.23
60371;BME280;48550;40.588;49.684;2022-07-04T12:51:19;101562.81;;;25.28;46.82
60371;BME280;48550;40.588;49.684;2022-07-04T12:53:46;101554.75;;;25.31;47.26
60371;BME280;48550;40.588;49.684;2022-07-04T12:59:05;101556.78;;;25.26;47.58
60371;BME280;48550;40.588;49.684;2022-07-04T13:01:31;101559.81;;;25.38;46.98
60371;BME280;48550;40.588;49.684;2022-07-04T13:03:57;101551.91;;;25.23;46.83
60371;BME280;48550;40.588;49.684;2022-07-04T13:06:23;101556.22;;;25.15;47.36
60371;BME280;48550;40.588;49.684;2022-07-04T13:08:50;101556.25;;;25.01;48.32
60371;BME280;48550;40.588;49.684;2022-07-04T13:11:15;101549.66;;;25.02;49.59